Time;durP1;ratioP1;P1;durP2;ratioP2;P2;SDS_P1;SDS_P2;PMS_P1;PMS_P2;Temp;Humidity;BMP_temperature;BMP_pressure;BME280_temperature;BME280_humidity;BME280_pressure;Samples;Min_cycle;Max_cycle;Signal;HPM_P1;HPM_P2
2023/03/21 00:01:44;;;;;;;6.00;3.90;;;12.90;91.80;;;;;;5044972;28;20472;-82
2023/03/21 00:04:10;;;;;;;6.90;3.50;;;12.90;91.80;;;;;;5045149;28;20436;-82
2023/03/21 00:06:37;;;;;;;5.70;3.30;;;12.90;91.90;;;;;;5046767;28;20453;-81
2023/03/21 00:09:04;;;;;;;4.63;3.47;;;12.80;92.10;;;;;;5047258;28;20469;-82
2023/03/21 00:11:31;;;;;;;6.47;3.13;;;12.80;92.70;;;;;;5044333;28;20461;-82
2023/03/21 00:14:01;;;;;;;4.90;3.83;;;12.70;92.70;;;;;;5039997;28;20445;-83
2023/03/21 00:16:34;;;;;;;4.93;3.27;;;12.90;93.10;;;;;;5043788;28;20539;-81
2023/03/21 00:19:05;;;;;;;4.97;3.60;;;12.90;93.40;;;;;;5040135;28;21433;-82
2023/03/21 00:21:32;;;;;;;4.73;3.17;;;12.80;93.20;;;;;;5038380;28;21470;-82
2023/03/21 00:24:17;;;;;;;5.93;3.87;;;12.70;93.10;;;;;;5034557;28;21039;-83
2023/03/21 00:26:44;;;;;;;5.50;3.73;;;12.70;93.10;;;;;;5023623;28;20461;-84
2023/03/21 00:29:11;;;;;;;5.07;3.30;;;12.70;93.10;;;;;;5024551;28;20488;-83
2023/03/21 00:31:38;;;;;;;7.70;3.73;;;12.70;93.00;;;;;;5021061;28;20497;-84
2023/03/21 00:34:04;;;;;;;11.53;3.70;;;12.70;92.90;;;;;;5023384;28;20446;-83
2023/03/21 00:36:31;;;;;;;5.93;3.60;;;12.70;92.80;;;;;;5025310;28;20454;-83
2023/03/21 00:38:59;;;;;;;4.83;2.90;;;12.60;92.70;;;;;;5026738;28;20453;-84
2023/03/21 00:41:26;;;;;;;6.47;4.60;;;12.60;92.80;;;;;;5027988;28;20560;-84
2023/03/21 00:44:08;;;;;;;7.63;2.90;;;12.60;92.80;;;;;;5025685;28;20457;-83
2023/03/21 00:46:35;;;;;;;4.37;3.20;;;12.50;93.00;;;;;;5029559;28;20461;-82
2023/03/21 00:49:14;;;;;;;8.10;4.23;;;12.50;93.10;;;;;;5039074;28;20464;-83
2023/03/21 00:51:42;;;;;;;6.33;3.77;;;12.60;93.00;;;;;;5037313;28;20746;-84
2023/03/21 00:54:11;;;;;;;6.70;3.33;;;12.60;93.10;;;;;;5028230;28;20468;-84
2023/03/21 00:56:38;;;;;;;6.57;3.23;;;12.70;92.90;;;;;;5032860;28;20961;-83
2023/03/21 00:59:05;;;;;;;4.37;2.90;;;12.60;93.10;;;;;;5040769;28;20575;-82
2023/03/21 01:01:33;;;;;;;4.37;3.97;;;12.60;93.40;;;;;;5040756;28;20465;-82
2023/03/21 01:04:09;;;;;;;6.83;3.47;;;12.60;93.40;;;;;;5041551;28;20445;-82
2023/03/21 01:06:38;;;;;;;5.93;5.43;;;12.60;93.40;;;;;;5040608;28;20568;-84
2023/03/21 01:09:07;;;;;;;5.83;3.40;;;12.50;93.50;;;;;;5038296;28;20511;-84
2023/03/21 01:11:34;;;;;;;7.07;3.37;;;12.50;93.60;;;;;;5040709;28;20457;-84
2023/03/21 01:14:00;;;;;;;3.90;2.80;;;12.60;93.60;;;;;;5034488;28;20527;-84
2023/03/21 01:16:47;;;;;;;5.73;3.97;;;12.60;93.50;;;;;;5032039;28;20527;-85
2023/03/21 01:19:17;;;;;;;5.60;3.17;;;12.70;93.40;;;;;;5023631;28;21254;-84
2023/03/21 01:21:54;;;;;;;10.20;3.77;;;12.70;93.50;;;;;;5032861;28;20538;-83
2023/03/21 01:24:22;;;;;;;5.63;3.10;;;12.60;93.50;;;;;;5020377;28;20454;-84
2023/03/21 01:26:48;;;;;;;4.90;3.43;;;12.70;93.60;;;;;;5017898;28;20453;-83
2023/03/21 01:29:15;;;;;;;7.40;3.70;;;12.60;93.70;;;;;;5023081;28;20502;-83
2023/03/21 01:31:42;;;;;;;10.87;4.27;;;12.60;93.50;;;;;;5025212;28;20472;-83
2023/03/21 01:34:08;;;;;;;7.40;3.77;;;12.50;93.60;;;;;;5025501;28;20437;-84
2023/03/21 01:36:35;;;;;;;6.07;3.93;;;12.50;94.00;;;;;;5025345;28;20463;-84
2023/03/21 01:39:03;;;;;;;4.20;3.40;;;12.60;94.20;;;;;;5022029;28;20592;-85
2023/03/21 01:41:33;;;;;;;6.67;3.50;;;12.70;93.90;;;;;;5022261;28;20448;-84
2023/03/21 01:44:15;;;;;;;7.97;4.60;;;12.60;94.00;;;;;;5023066;28;20452;-85
2023/03/21 01:46:48;;;;;;;10.70;3.87;;;12.80;94.20;;;;;;5016476;28;20465;-85
2023/03/21 01:49:44;;;;;;;6.17;3.70;;;12.80;94.30;;;;;;5022822;28;20480;-85
2023/03/21 01:52:16;;;;;;;7.80;3.40;;;12.80;94.30;;;;;;5023543;28;20452;-84
2023/03/21 01:55:02;;;;;;;4.90;3.13;;;12.80;94.20;;;;;;5024223;28;20453;-84
2023/03/21 01:57:40;;;;;;;4.97;3.57;;;12.70;94.20;;;;;;5021673;28;20461;-83
2023/03/21 02:00:25;;;;;;;7.47;4.50;;;12.70;94.30;;;;;;5021745;28;20477;-82
2023/03/21 02:02:58;;;;;;;5.67;3.77;;;12.70;94.20;;;;;;5022395;28;20472;-84
2023/03/21 02:05:48;;;;;;;6.63;4.60;;;12.70;94.50;;;;;;5023498;28;20464;-83
2023/03/21 02:08:15;;;;;;;6.30;4.17;;;12.70;94.80;;;;;;5021864;28;20972;-84
2023/03/21 02:10:44;;;;;;;8.33;3.70;;;12.70;95.00;;;;;;5021695;28;20496;-84
2023/03/21 02:13:11;;;;;;;8.23;4.00;;;12.50;95.30;;;;;;5021595;28;20542;-83
2023/03/21 02:15:40;;;;;;;8.43;4.37;;;12.70;95.50;;;;;;5021717;28;20464;-83
2023/03/21 02:18:23;;;;;;;5.50;3.53;;;12.70;95.20;;;;;;5020854;28;20467;-82
2023/03/21 02:21:02;;;;;;;6.60;4.60;;;12.80;95.00;;;;;;5023460;28;21258;-81
2023/03/21 02:23:44;;;;;;;6.07;4.20;;;12.70;94.90;;;;;;5023632;28;20464;-84
2023/03/21 02:26:37;;;;;;;4.53;3.60;;;12.60;94.80;;;;;;5024389;28;20445;-85
2023/03/21 02:29:27;;;;;;;7.10;4.10;;;12.50;94.80;;;;;;5025344;28;20523;-84
2023/03/21 02:31:57;;;;;;;6.60;4.07;;;12.40;94.70;;;;;;5024917;28;20454;-84
2023/03/21 02:35:03;;;;;;;7.73;3.90;;;12.30;94.90;;;;;;5024074;28;20452;-84
2023/03/21 02:37:29;;;;;;;6.10;4.00;;;12.30;95.50;;;;;;5025369;28;20531;-84
2023/03/21 02:40:12;;;;;;;4.80;3.23;;;12.20;95.10;;;;;;5024395;28;20904;-84
2023/03/21 02:42:47;;;;;;;8.43;4.07;;;12.20;95.30;;;;;;5023106;28;20448;-84
2023/03/21 02:45:38;;;;;;;8.03;3.70;;;12.20;95.30;;;;;;5023423;28;21179;-84
2023/03/21 02:48:11;;;;;;;7.40;4.37;;;12.20;95.20;;;;;;5027492;28;20555;-84
2023/03/21 02:50:55;;;;;;;8.13;3.83;;;12.20;95.30;;;;;;5034156;28;20481;-83
2023/03/21 02:53:27;;;;;;;4.07;3.53;;;12.10;95.40;;;;;;5026958;28;20453;-84
2023/03/21 02:55:55;;;;;;;6.10;3.80;;;12.10;95.60;;;;;;5022471;28;20458;-84
2023/03/21 02:58:24;;;;;;;6.90;4.10;;;12.30;95.60;;;;;;5026856;28;20596;-84
2023/03/21 03:00:54;;;;;;;9.00;4.73;;;12.30;95.30;;;;;;5027730;28;20513;-84
2023/03/21 03:03:22;;;;;;;6.70;3.90;;;12.20;95.50;;;;;;5028773;28;20468;-83
2023/03/21 03:06:02;;;;;;;5.00;4.10;;;12.20;95.50;;;;;;5029657;28;20889;-83
2023/03/21 03:08:32;;;;;;;8.83;5.33;;;12.30;95.50;;;;;;5033315;28;20445;-84
2023/03/21 03:11:27;;;;;;;7.50;3.57;;;12.20;95.50;;;;;;5033979;28;20572;-81
2023/03/21 03:14:04;;;;;;;6.20;3.97;;;12.40;95.60;;;;;;5030764;28;20467;-85
2023/03/21 03:17:36;;;;;;;7.20;3.43;;;12.50;95.30;;;;;;5033479;28;20429;-84
2023/03/21 03:20:20;;;;;;;4.63;3.77;;;12.70;95.40;;;;;;5035629;28;20519;-83
2023/03/21 03:22:54;;;;;;;6.93;4.10;;;12.70;95.00;;;;;;5029552;28;20460;-84
2023/03/21 03:25:28;;;;;;;11.73;4.27;;;12.60;95.00;;;;;;5027233;28;20448;-85
2023/03/21 03:28:08;;;;;;;10.90;3.60;;;12.40;95.20;;;;;;5032606;28;20465;-83
2023/03/21 03:30:37;;;;;;;6.17;4.00;;;12.40;95.30;;;;;;5038460;28;20614;-84
2023/03/21 03:33:22;;;;;;;5.83;4.37;;;12.30;95.30;;;;;;5013558;28;20453;-84
2023/03/21 03:35:50;;;;;;;6.47;3.60;;;12.20;95.60;;;;;;5021063;28;22064;-83
2023/03/21 03:38:36;;;;;;;5.70;3.80;;;12.20;95.60;;;;;;5030147;28;20488;-84
2023/03/21 03:41:17;;;;;;;4.30;3.60;;;12.10;95.80;;;;;;5025186;28;20563;-84
2023/03/21 03:43:49;;;;;;;6.50;3.80;;;12.10;95.80;;;;;;5026212;28;21841;-83
2023/03/21 03:46:23;;;;;;;7.33;4.20;;;12.10;95.80;;;;;;5019665;28;20536;-83
2023/03/21 03:49:13;;;;;;;6.43;3.43;;;12.10;95.80;;;;;;5022764;28;20479;-83
2023/03/21 03:51:51;;;;;;;4.43;3.03;;;12.20;95.70;;;;;;5020849;28;20445;-84
2023/03/21 03:54:24;;;;;;;4.87;3.30;;;12.10;95.70;;;;;;5029701;28;20560;-84
2023/03/21 03:56:52;;;;;;;4.93;3.73;;;12.20;96.10;;;;;;5024102;28;20478;-82
2023/03/21 03:59:23;;;;;;;8.30;3.93;;;12.30;96.00;;;;;;5023836;28;20483;-84
2023/03/21 04:01:50;;;;;;;9.50;4.20;;;12.30;95.90;;;;;;5023562;28;20461;-83
2023/03/21 04:04:21;;;;;;;6.83;4.30;;;12.30;95.80;;;;;;5022968;28;20464;-83
2023/03/21 04:06:50;;;;;;;5.60;4.17;;;12.20;95.90;;;;;;5025312;28;21079;-84
2023/03/21 04:09:18;;;;;;;9.90;4.33;;;12.10;96.10;;;;;;5026825;28;20477;-84
2023/03/21 04:11:53;;;;;;;6.67;4.13;;;12.10;96.40;;;;;;5023038;28;20972;-84
2023/03/21 04:14:20;;;;;;;5.63;3.63;;;12.00;96.40;;;;;;5024905;28;20465;-84
2023/03/21 04:16:48;;;;;;;5.87;3.93;;;12.00;96.40;;;;;;5025582;28;20444;-83
2023/03/21 04:19:15;;;;;;;7.20;3.73;;;11.90;96.50;;;;;;5025817;28;20475;-83
2023/03/21 04:21:43;;;;;;;5.17;3.50;;;12.00;96.60;;;;;;5030150;28;20449;-84
2023/03/21 04:24:12;;;;;;;7.13;4.20;;;12.00;96.40;;;;;;5029912;28;20568;-84
2023/03/21 04:26:40;;;;;;;4.20;3.63;;;12.00;96.40;;;;;;5024426;28;20458;-83
2023/03/21 04:29:08;;;;;;;9.07;4.50;;;12.10;96.50;;;;;;5021135;28;20459;-84
2023/03/21 04:31:35;;;;;;;7.27;3.40;;;12.10;96.60;;;;;;5027021;28;20445;-84
2023/03/21 04:34:08;;;;;;;9.60;3.60;;;12.00;96.70;;;;;;5025534;28;20453;-83
2023/03/21 04:36:43;;;;;;;8.87;4.50;;;12.10;96.70;;;;;;5021919;28;20457;-83
2023/03/21 04:39:31;;;;;;;6.10;3.80;;;12.00;96.80;;;;;;5053939;28;20544;-84
2023/03/21 04:42:01;;;;;;;10.47;4.03;;;11.90;97.10;;;;;;5032981;28;20467;-84
2023/03/21 04:44:28;;;;;;;10.13;4.40;;;12.10;97.20;;;;;;5040252;28;20484;-83
2023/03/21 04:46:58;;;;;;;6.63;3.83;;;12.00;96.90;;;;;;5040529;28;20454;-83
2023/03/21 04:49:26;;;;;;;10.47;4.53;;;12.00;96.90;;;;;;5037025;28;20485;-83
2023/03/21 04:51:55;;;;;;;8.90;4.43;;;12.00;97.10;;;;;;5039845;28;20450;-84
2023/03/21 04:57:17;;;;;;;6.77;3.70;;;12.10;97.20;;;;;;5202352;22;20500;-82
2023/03/21 04:59:44;;;;;;;6.60;4.20;;;12.20;97.10;;;;;;5068310;28;20483;-83
2023/03/21 05:02:12;;;;;;;8.47;4.83;;;12.20;97.00;;;;;;5072039;28;20468;-83
2023/03/21 05:04:40;;;;;;;12.53;4.13;;;12.20;96.90;;;;;;5085755;28;22055;-83
2023/03/21 05:07:08;;;;;;;6.43;3.90;;;12.40;96.50;;;;;;5090317;28;20555;-83
2023/03/21 05:09:36;;;;;;;6.53;4.17;;;12.30;96.70;;;;;;5075231;28;20479;-82
2023/03/21 05:12:04;;;;;;;10.63;4.10;;;12.20;96.90;;;;;;5081302;28;20698;-83
2023/03/21 05:14:33;;;;;;;10.50;4.43;;;12.20;97.00;;;;;;5083061;28;20448;-83
2023/03/21 05:17:03;;;;;;;6.70;4.10;;;12.30;96.90;;;;;;5083072;28;20451;-83
2023/03/21 05:19:34;;;;;;;9.10;4.60;;;12.40;96.80;;;;;;5082590;28;20573;-85
2023/03/21 05:22:10;;;;;;;11.17;4.60;;;12.30;96.90;;;;;;5080899;28;20462;-84
2023/03/21 05:24:38;;;;;;;9.13;4.57;;;12.20;97.20;;;;;;5224962;22;20486;-82
2023/03/21 05:27:04;;;;;;;13.20;4.50;;;12.20;97.20;;;;;;5070005;28;20531;-84
2023/03/21 05:29:32;;;;;;;7.23;4.10;;;12.10;97.20;;;;;;5067566;28;20988;-84
2023/03/21 05:32:00;;;;;;;6.07;4.20;;;12.00;97.50;;;;;;5048495;28;20507;-83
2023/03/21 05:34:27;;;;;;;5.43;3.90;;;11.90;97.60;;;;;;5049591;28;20448;-83
2023/03/21 05:36:54;;;;;;;6.10;4.00;;;11.80;97.90;;;;;;5049121;28;22087;-83
2023/03/21 05:39:21;;;;;;;6.63;3.90;;;12.00;98.10;;;;;;5044350;28;20468;-84
2023/03/21 05:41:48;;;;;;;9.03;4.90;;;12.10;97.80;;;;;;5046794;28;20449;-84
2023/03/21 05:44:15;;;;;;;5.70;4.57;;;12.10;97.70;;;;;;5046511;28;20454;-83
2023/03/21 05:46:42;;;;;;;7.00;4.63;;;12.00;97.70;;;;;;5048077;28;20471;-83
2023/03/21 05:49:10;;;;;;;6.47;4.17;;;12.10;97.90;;;;;;5052878;28;20990;-82
2023/03/21 05:51:37;;;;;;;7.47;4.00;;;12.10;97.70;;;;;;5051331;28;20480;-83
2023/03/21 05:54:04;;;;;;;5.57;4.20;;;12.10;97.80;;;;;;5049496;28;20437;-82
2023/03/21 05:56:30;;;;;;;8.37;4.63;;;12.10;97.90;;;;;;5048755;28;20456;-84
2023/03/21 05:58:57;;;;;;;7.63;4.00;;;12.10;98.00;;;;;;5050022;28;20653;-83
2023/03/21 06:01:26;;;;;;;10.37;4.23;;;12.10;98.10;;;;;;5052843;28;20448;-83
2023/03/21 06:03:53;;;;;;;7.27;3.83;;;12.00;98.60;;;;;;5054948;28;20464;-84
2023/03/21 06:06:20;;;;;;;7.87;4.50;;;12.10;98.10;;;;;;5047818;28;20467;-85
2023/03/21 06:08:47;;;;;;;8.43;5.53;;;12.20;98.00;;;;;;5048270;28;20465;-81
2023/03/21 06:11:24;;;;;;;9.97;4.70;;;12.20;98.00;;;;;;5049768;28;20516;-82
2023/03/21 06:13:51;;;;;;;7.80;4.10;;;12.20;98.00;;;;;;5050137;28;21000;-82
2023/03/21 06:16:18;;;;;;;7.50;4.70;;;12.10;98.10;;;;;;5048858;28;21461;-81
2023/03/21 06:18:44;;;;;;;9.73;5.03;;;12.10;98.30;;;;;;5048731;28;20478;-83
2023/03/21 06:21:11;;;;;;;9.63;5.27;;;12.10;98.30;;;;;;5048776;28;20518;-83
2023/03/21 06:23:39;;;;;;;7.00;4.50;;;12.00;98.40;;;;;;5050725;28;21309;-84
2023/03/21 06:26:09;;;;;;;8.93;4.97;;;12.10;98.70;;;;;;5054218;28;20524;-83
2023/03/21 06:28:39;;;;;;;5.30;3.90;;;12.00;98.90;;;;;;5052639;28;20452;-82
2023/03/21 06:31:09;;;;;;;10.10;4.60;;;12.00;98.90;;;;;;5050220;28;20489;-82
2023/03/21 06:33:36;;;;;;;7.07;4.50;;;11.90;98.80;;;;;;5050632;28;20478;-84
2023/03/21 06:36:10;;;;;;;12.77;5.80;;;12.20;99.00;;;;;;5050527;28;20503;-83
2023/03/21 06:38:38;;;;;;;6.30;4.83;;;12.30;98.40;;;;;;5052478;28;20487;-82
2023/03/21 06:41:06;;;;;;;7.77;4.60;;;12.30;98.10;;;;;;5052286;28;20452;-84
2023/03/21 06:43:36;;;;;;;8.30;4.90;;;12.30;98.30;;;;;;5051337;28;20453;-82
2023/03/21 06:46:04;;;;;;;10.17;5.00;;;12.30;98.30;;;;;;5053360;28;20459;-82
2023/03/21 06:48:31;;;;;;;9.60;5.40;;;12.30;98.40;;;;;;5052461;28;20465;-82
2023/03/21 06:50:59;;;;;;;9.20;4.40;;;12.30;98.10;;;;;;5055988;28;20485;-80
2023/03/21 06:53:27;;;;;;;9.10;4.57;;;12.40;98.10;;;;;;5065614;28;20457;-80
2023/03/21 06:55:56;;;;;;;7.40;5.17;;;12.40;97.90;;;;;;5064428;28;20444;-82
2023/03/21 06:58:29;;;;;;;8.77;4.13;;;12.40;97.50;;;;;;5063885;28;20492;-81
2023/03/21 07:01:01;;;;;;;9.20;6.00;;;12.40;97.30;;;;;;5064367;28;20556;-83
2023/03/21 07:03:28;;;;;;;13.10;4.37;;;12.30;97.30;;;;;;5059789;28;20559;-84
2023/03/21 07:05:58;;;;;;;7.43;5.00;;;12.50;97.50;;;;;;5054983;28;20531;-83
2023/03/21 07:08:25;;;;;;;7.87;5.30;;;12.50;97.50;;;;;;5047638;28;20461;-84
2023/03/21 07:10:57;;;;;;;8.97;4.60;;;12.40;97.60;;;;;;5046642;28;20570;-83
2023/03/21 07:13:24;;;;;;;6.90;5.03;;;12.40;98.00;;;;;;5046327;28;20548;-83
2023/03/21 07:15:53;;;;;;;6.90;4.63;;;12.50;98.30;;;;;;5046756;28;20503;-83
2023/03/21 07:18:22;;;;;;;10.40;5.60;;;12.50;98.60;;;;;;5049861;28;20468;-83
2023/03/21 07:20:51;;;;;;;9.63;5.60;;;12.40;98.80;;;;;;5050811;28;20815;-82
2023/03/21 07:23:20;;;;;;;8.30;5.03;;;12.50;99.00;;;;;;5048107;28;20859;-83
2023/03/21 07:25:55;;;;;;;10.60;5.10;;;12.40;99.20;;;;;;5045460;28;20482;-83
2023/03/21 07:28:23;;;;;;;9.77;5.70;;;12.40;99.50;;;;;;5032330;28;20472;-81
2023/03/21 07:33:35;;;;;;;9.27;5.90;;;12.40;99.90;;;;;;5344810;22;20868;-82
2023/03/21 07:36:02;;;;;;;12.37;5.77;;;12.30;99.90;;;;;;5030611;28;20445;-83
2023/03/21 07:38:29;;;;;;;10.80;6.13;;;12.30;99.90;;;;;;5027356;28;20870;-84
2023/03/21 07:40:59;;;;;;;9.67;5.80;;;12.30;99.90;;;;;;5025327;28;21140;-83
2023/03/21 07:43:27;;;;;;;12.70;5.70;;;12.20;99.90;;;;;;5022117;28;20461;-82
2023/03/21 07:45:57;;;;;;;10.63;6.00;;;12.10;99.90;;;;;;5023315;28;22164;-83
2023/03/21 07:48:24;;;;;;;10.33;7.10;;;12.10;99.90;;;;;;5023544;28;20461;-83
2023/03/21 07:50:51;;;;;;;12.23;5.80;;;12.20;99.90;;;;;;5027568;28;20490;-84
2023/03/21 07:53:18;;;;;;;10.20;5.47;;;12.10;99.90;;;;;;5030904;28;20454;-83
2023/03/21 07:55:50;;;;;;;13.43;6.73;;;11.90;99.90;;;;;;5037898;28;20446;-82
2023/03/21 07:58:16;;;;;;;9.50;5.90;;;12.10;99.90;;;;;;5038524;28;20450;-84
2023/03/21 08:00:43;;;;;;;10.47;4.93;;;12.00;99.90;;;;;;5036601;28;20498;-83
2023/03/21 08:03:10;;;;;;;10.50;6.93;;;11.90;99.90;;;;;;5036959;28;20453;-83
2023/03/21 08:05:38;;;;;;;9.10;5.80;;;12.00;99.90;;;;;;5037612;28;20465;-84
2023/03/21 08:08:05;;;;;;;7.37;4.97;;;12.00;99.90;;;;;;5036557;28;20458;-82
2023/03/21 08:10:33;;;;;;;11.30;5.30;;;12.00;99.90;;;;;;5032222;28;20560;-82
2023/03/21 08:13:00;;;;;;;12.63;5.77;;;12.10;99.90;;;;;;5039251;28;20441;-83
2023/03/21 08:15:27;;;;;;;19.33;10.80;;;12.10;99.90;;;;;;5035573;28;20442;-83
2023/03/21 08:17:54;;;;;;;8.10;5.73;;;12.00;99.90;;;;;;5030512;28;20444;-82
2023/03/21 08:20:22;;;;;;;9.53;6.13;;;12.00;99.90;;;;;;5022804;28;20486;-82
2023/03/21 08:22:49;;;;;;;10.00;5.80;;;12.10;99.90;;;;;;5037799;28;20500;-83
2023/03/21 08:25:20;;;;;;;9.20;7.10;;;12.10;99.90;;;;;;5039190;28;20501;-83
2023/03/21 08:27:48;;;;;;;12.93;7.70;;;12.20;99.90;;;;;;5018304;28;20468;-84
2023/03/21 08:30:19;;;;;;;11.00;6.93;;;12.20;99.90;;;;;;5017917;28;20572;-82
2023/03/21 08:32:45;;;;;;;8.47;6.37;;;12.10;99.90;;;;;;5017044;28;20492;-84
2023/03/21 08:35:14;;;;;;;10.10;7.20;;;12.20;99.90;;;;;;5025277;28;20464;-84
2023/03/21 08:37:42;;;;;;;14.77;7.43;;;12.10;99.90;;;;;;5023069;28;20562;-84
2023/03/21 08:40:19;;;;;;;10.03;6.30;;;12.00;99.90;;;;;;5019914;28;20477;-83
2023/03/21 08:42:46;;;;;;;16.87;7.10;;;12.20;99.90;;;;;;5036795;28;20457;-83
2023/03/21 08:45:14;;;;;;;8.50;6.27;;;12.10;99.90;;;;;;5018392;28;20492;-85
2023/03/21 08:47:41;;;;;;;7.43;5.10;;;12.10;99.90;;;;;;5031662;28;20578;-85
2023/03/21 08:50:13;;;;;;;11.77;5.97;;;12.10;99.90;;;;;;5022566;28;20473;-83
2023/03/21 08:52:39;;;;;;;10.40;5.50;;;12.00;99.90;;;;;;5021739;28;20458;-82
2023/03/21 08:55:07;;;;;;;12.57;6.50;;;12.00;99.90;;;;;;5021216;28;20500;-83
2023/03/21 08:57:33;;;;;;;6.20;5.60;;;12.00;99.90;;;;;;5021728;28;20448;-81
2023/03/21 09:00:00;;;;;;;9.20;6.30;;;11.80;99.90;;;;;;5026973;28;20469;-83
2023/03/21 09:02:28;;;;;;;10.97;5.80;;;11.90;99.90;;;;;;5019692;28;20464;-84
2023/03/21 09:04:57;;;;;;;9.50;5.80;;;12.00;99.90;;;;;;5019635;28;20450;-82
2023/03/21 09:07:25;;;;;;;9.87;5.20;;;11.90;99.90;;;;;;5016695;28;20485;-82
2023/03/21 09:09:52;;;;;;;8.10;4.90;;;11.90;99.90;;;;;;5018438;28;20498;-83
2023/03/21 09:12:40;;;;;;;11.30;6.10;;;11.80;99.90;;;;;;5020851;28;20452;-83
2023/03/21 09:15:11;;;;;;;11.53;5.30;;;11.80;99.90;;;;;;5018629;28;21132;-82
2023/03/21 09:17:49;;;;;;;10.90;6.30;;;11.90;99.90;;;;;;5032769;28;20581;-83
2023/03/21 09:20:20;;;;;;;8.53;6.50;;;11.80;99.90;;;;;;5015634;28;20476;-83
2023/03/21 09:22:48;;;;;;;9.40;5.47;;;11.80;99.90;;;;;;5018163;28;20454;-83
2023/03/21 09:25:15;;;;;;;9.93;6.50;;;11.70;99.90;;;;;;5016598;28;20930;-82
2023/03/21 09:27:44;;;;;;;15.63;6.67;;;11.90;99.90;;;;;;5013065;28;20447;-82
2023/03/21 09:30:17;;;;;;;10.03;6.07;;;11.90;99.90;;;;;;5023193;28;20461;-83
2023/03/21 09:32:47;;;;;;;10.60;6.27;;;11.90;99.90;;;;;;5017945;28;20477;-81
2023/03/21 09:35:17;;;;;;;6.37;5.00;;;11.90;99.90;;;;;;5016727;28;20453;-83
2023/03/21 09:37:47;;;;;;;9.80;5.50;;;12.00;99.90;;;;;;5017261;28;20466;-84
2023/03/21 09:40:22;;;;;;;12.00;6.10;;;12.10;99.90;;;;;;5020229;28;20466;-84
2023/03/21 09:43:15;;;;;;;14.20;7.27;;;12.30;99.90;;;;;;5015428;28;20461;-83
2023/03/21 09:45:51;;;;;;;7.70;5.63;;;12.40;99.90;;;;;;5016520;28;20497;-84
2023/03/21 09:48:34;;;;;;;8.47;5.87;;;12.40;99.90;;;;;;5014968;28;20456;-83
2023/03/21 09:51:11;;;;;;;11.13;5.70;;;12.30;99.90;;;;;;5020125;28;21094;-84
2023/03/21 09:53:41;;;;;;;10.10;5.30;;;12.20;99.90;;;;;;5021673;28;20445;-84
2023/03/21 09:56:11;;;;;;;10.17;6.27;;;12.20;99.90;;;;;;5039725;28;20449;-83
2023/03/21 09:58:51;;;;;;;8.83;5.50;;;12.20;99.90;;;;;;5025300;28;20463;-82
2023/03/21 10:01:27;;;;;;;7.47;5.80;;;12.20;99.90;;;;;;5026199;28;20464;-83
2023/03/21 10:03:55;;;;;;;6.50;5.80;;;12.20;99.90;;;;;;5024740;28;20455;-83
2023/03/21 10:06:28;;;;;;;13.60;5.80;;;12.20;99.90;;;;;;5025463;28;20512;-82
2023/03/21 10:09:05;;;;;;;10.90;5.47;;;12.20;99.90;;;;;;5025643;28;20461;-84
2023/03/21 10:11:54;;;;;;;7.63;5.23;;;12.10;99.90;;;;;;5024907;28;20493;-84
2023/03/21 10:14:46;;;;;;;8.67;5.70;;;12.00;99.90;;;;;;5024753;28;20464;-82
2023/03/21 10:17:32;;;;;;;8.40;5.80;;;12.10;99.90;;;;;;5017118;28;20452;-84
2023/03/21 10:20:25;;;;;;;8.40;5.10;;;12.10;99.90;;;;;;5018339;28;20518;-83
2023/03/21 10:23:03;;;;;;;6.73;5.17;;;12.00;99.90;;;;;;5023990;28;20469;-83
2023/03/21 10:25:33;;;;;;;11.63;6.10;;;12.00;99.90;;;;;;5024112;28;20440;-83
2023/03/21 10:28:02;;;;;;;7.13;4.97;;;11.80;99.90;;;;;;5024095;28;20459;-85
2023/03/21 10:31:02;;;;;;;11.20;5.10;;;11.90;99.90;;;;;;5022173;28;20500;-82
2023/03/21 10:33:41;;;;;;;8.13;5.97;;;12.10;99.90;;;;;;5011138;28;20518;-84
2023/03/21 10:36:13;;;;;;;9.67;5.67;;;12.10;99.90;;;;;;5023852;28;20593;-83
2023/03/21 10:38:45;;;;;;;5.17;4.70;;;12.10;99.90;;;;;;5025324;28;20514;-84
2023/03/21 10:41:12;;;;;;;9.07;5.80;;;12.10;99.90;;;;;;5011088;28;20486;-81
2023/03/21 10:43:44;;;;;;;6.10;4.30;;;12.20;99.90;;;;;;5039056;28;20460;-81
2023/03/21 10:46:22;;;;;;;10.60;6.70;;;12.20;99.90;;;;;;5020297;28;20462;-83
2023/03/21 10:48:51;;;;;;;7.90;5.60;;;12.20;99.90;;;;;;5023288;28;20788;-84
2023/03/21 10:51:21;;;;;;;7.47;5.13;;;12.00;99.90;;;;;;5029821;28;20514;-82
2023/03/21 10:53:58;;;;;;;10.83;5.73;;;12.10;99.90;;;;;;5017346;28;20446;-82
2023/03/21 10:56:28;;;;;;;6.00;4.60;;;12.10;99.90;;;;;;5017557;28;20497;-82
2023/03/21 10:58:58;;;;;;;6.83;5.23;;;12.20;99.90;;;;;;5016417;28;20534;-84
2023/03/21 11:01:35;;;;;;;8.30;6.30;;;12.10;99.90;;;;;;5019138;28;20754;-83
2023/03/21 11:04:15;;;;;;;8.70;5.07;;;12.40;99.90;;;;;;5016230;28;20461;-82
2023/03/21 11:06:50;;;;;;;5.80;4.70;;;12.60;99.90;;;;;;5017037;28;20672;-83
2023/03/21 11:09:20;;;;;;;6.10;4.97;;;12.50;99.90;;;;;;5017483;28;20570;-84
2023/03/21 11:12:01;;;;;;;8.50;5.40;;;12.40;99.90;;;;;;5015368;28;20532;-82
2023/03/21 11:14:47;;;;;;;7.83;4.40;;;12.40;99.90;;;;;;5015845;28;20447;-84
2023/03/21 11:17:17;;;;;;;6.40;5.03;;;12.50;99.90;;;;;;5018128;28;22179;-84
2023/03/21 11:20:05;;;;;;;8.13;5.10;;;12.40;99.90;;;;;;5046365;28;20596;-84
2023/03/21 11:22:41;;;;;;;5.77;4.33;;;12.40;99.90;;;;;;5035836;28;20466;-84
2023/03/21 11:25:18;;;;;;;6.83;5.10;;;12.30;99.90;;;;;;5033376;28;20453;-83
2023/03/21 11:27:54;;;;;;;7.10;5.33;;;12.20;99.90;;;;;;5033223;28;20441;-83
2023/03/21 11:30:24;;;;;;;6.40;4.70;;;12.10;99.90;;;;;;5029381;28;20457;-85
2023/03/21 11:32:54;;;;;;;7.03;3.80;;;12.10;99.90;;;;;;5017990;28;20549;-82
2023/03/21 11:35:26;;;;;;;8.13;4.70;;;12.00;99.90;;;;;;5015880;28;20450;-83
2023/03/21 11:37:55;;;;;;;6.53;4.63;;;12.10;99.90;;;;;;5027574;28;22514;-84
2023/03/21 11:40:24;;;;;;;6.23;4.43;;;12.00;99.90;;;;;;5016307;28;20892;-83
2023/03/21 11:42:57;;;;;;;6.33;4.70;;;12.00;99.90;;;;;;5011249;28;20587;-84
2023/03/21 11:45:29;;;;;;;4.97;4.57;;;12.00;99.90;;;;;;5026244;28;20488;-84
2023/03/21 11:47:58;;;;;;;6.53;4.67;;;12.10;99.90;;;;;;5013510;28;20460;-84
2023/03/21 11:50:38;;;;;;;6.30;5.07;;;12.10;99.90;;;;;;5017939;28;21007;-85
2023/03/21 11:53:35;;;;;;;5.53;4.80;;;12.00;99.90;;;;;;5019383;28;20477;-84
2023/03/21 11:56:28;;;;;;;4.87;3.73;;;12.10;99.90;;;;;;5025644;28;20442;-84
2023/03/21 11:59:19;;;;;;;7.53;4.30;;;12.00;99.90;;;;;;5020202;28;20476;-83
2023/03/21 12:01:59;;;;;;;12.23;4.10;;;12.10;99.90;;;;;;5019142;28;20516;-84
2023/03/21 12:04:54;;;;;;;7.33;4.50;;;12.10;99.90;;;;;;5020982;28;20464;-85
2023/03/21 12:07:59;;;;;;;6.50;4.37;;;12.10;99.90;;;;;;5027518;28;20449;-83
2023/03/21 12:10:41;;;;;;;5.40;3.40;;;12.10;99.90;;;;;;5033152;28;20466;-81
2023/03/21 12:13:43;;;;;;;5.90;4.03;;;12.10;99.90;;;;;;5034406;28;20487;-84
2023/03/21 12:16:42;;;;;;;7.23;4.47;;;12.00;99.90;;;;;;5035252;28;20464;-83
2023/03/21 12:19:23;;;;;;;9.47;4.47;;;12.00;99.90;;;;;;5024616;28;20452;-83
2023/03/21 12:22:18;;;;;;;4.10;3.70;;;12.10;99.90;;;;;;5022265;28;20891;-84
2023/03/21 12:24:55;;;;;;;6.17;4.30;;;12.00;99.90;;;;;;5020757;28;20463;-84
2023/03/21 12:27:41;;;;;;;7.53;4.40;;;12.00;99.90;;;;;;5022764;28;20448;-84
2023/03/21 12:30:32;;;;;;;4.90;4.20;;;12.10;99.90;;;;;;5023070;28;20480;-82
2023/03/21 12:33:50;;;;;;;8.33;4.07;;;12.20;99.90;;;;;;5025569;28;20565;-84
2023/03/21 12:36:38;;;;;;;6.50;4.60;;;12.20;99.90;;;;;;5008777;28;20504;-84
2023/03/21 12:39:17;;;;;;;5.47;3.93;;;12.10;99.90;;;;;;5019426;28;20460;-83
2023/03/21 12:42:17;;;;;;;4.90;4.10;;;12.00;99.90;;;;;;5017634;28;20508;-82
2023/03/21 12:44:50;;;;;;;6.10;4.60;;;12.10;99.90;;;;;;5017428;28;20445;-84
2023/03/21 12:47:24;;;;;;;6.57;3.57;;;12.10;99.90;;;;;;5012131;28;20451;-82
2023/03/21 12:50:14;;;;;;;9.90;4.10;;;12.10;99.90;;;;;;5016332;28;20582;-86
2023/03/21 12:52:46;;;;;;;4.90;4.40;;;12.20;99.90;;;;;;5018182;28;20747;-83
2023/03/21 12:55:18;;;;;;;4.67;3.77;;;12.10;99.90;;;;;;5019186;28;20489;-83
2023/03/21 12:57:51;;;;;;;6.30;4.07;;;12.30;99.90;;;;;;5019022;28;20530;-85
2023/03/21 13:00:45;;;;;;;5.03;4.50;;;12.30;99.90;;;;;;5017866;28;20551;-82
2023/03/21 13:03:20;;;;;;;7.20;5.00;;;12.20;99.90;;;;;;5017814;28;20455;-84
2023/03/21 13:05:59;;;;;;;6.70;3.47;;;12.20;99.90;;;;;;5017012;28;20480;-85
2023/03/21 13:08:47;;;;;;;5.60;4.60;;;12.30;99.90;;;;;;5018380;28;20440;-83
2023/03/21 13:11:20;;;;;;;4.63;4.03;;;12.30;99.90;;;;;;5018323;28;20539;-83
2023/03/21 13:14:06;;;;;;;4.53;4.13;;;12.40;99.90;;;;;;5018274;28;20477;-84
2023/03/21 13:16:40;;;;;;;5.50;4.13;;;12.60;99.90;;;;;;5019646;28;20453;-84
2023/03/21 13:19:17;;;;;;;10.07;4.60;;;12.50;99.90;;;;;;5031057;28;20437;-83
2023/03/21 13:22:00;;;;;;;5.83;3.53;;;12.60;99.90;;;;;;5035385;28;20457;-83
2023/03/21 13:24:48;;;;;;;5.27;4.63;;;12.50;99.90;;;;;;5021587;28;20462;-83